createdAt,value
2018-12-05T00:02:00.302Z,24.90
2018-12-05T00:05:03.940Z,13.15
2018-12-05T00:08:07.529Z,20.97
2018-12-05T00:11:11.064Z,20.63
2018-12-05T00:14:14.679Z,14.80
2018-12-05T00:17:18.145Z,17.43
2018-12-05T00:20:21.828Z,12.50
2018-12-05T00:23:26.174Z,15.87
2018-12-05T00:26:29.864Z,26.10
2018-12-05T00:29:33.498Z,20.50
2018-12-05T00:32:37.017Z,15.07
2018-12-05T00:35:40.542Z,23.10
2018-12-05T00:38:44.044Z,18.03
2018-12-05T00:41:47.638Z,19.80
2018-12-05T00:44:52.649Z,18.05
2018-12-05T00:47:57.002Z,21.43
2018-12-05T00:51:00.586Z,23.02
2018-12-05T00:54:04.218Z,21.20
2018-12-05T00:57:07.831Z,20.82
2018-12-05T01:00:11.497Z,15.63
2018-12-05T01:03:15.092Z,19.47
2018-12-05T01:06:19.611Z,29.27
2018-12-05T01:09:23.284Z,30.57
2018-12-05T01:12:26.799Z,22.98
2018-12-05T01:15:30.326Z,21.80
2018-12-05T01:18:33.808Z,24.30
2018-12-05T01:21:37.343Z,23.33
2018-12-05T01:24:40.976Z,26.68
2018-12-05T01:27:44.503Z,26.03
2018-12-05T01:30:48.298Z,23.03
2018-12-05T01:39:26.058Z,22.53
2018-12-05T01:42:29.694Z,32.27
2018-12-05T01:45:33.267Z,25.97
2018-12-05T01:48:36.923Z,21.90
2018-12-05T01:51:40.508Z,31.93
2018-12-05T01:54:44.054Z,22.43
2018-12-05T01:57:47.582Z,32.40
2018-12-05T02:00:53.014Z,29.60
2018-12-05T02:03:56.464Z,27.63
2018-12-05T02:07:06.782Z,25.57
2018-12-05T02:10:10.630Z,33.13
2018-12-05T02:13:14.110Z,26.53
2018-12-05T02:16:17.672Z,31.77
2018-12-05T02:19:21.958Z,27.62
2018-12-05T02:22:25.425Z,30.50
2018-12-05T02:25:28.918Z,28.00
2018-12-05T02:28:32.475Z,40.77
2018-12-05T02:31:36.077Z,35.63
2018-12-05T02:34:39.717Z,29.17
2018-12-05T02:37:43.259Z,37.33
2018-12-05T02:40:47.152Z,31.07
2018-12-05T02:43:50.845Z,30.47
2018-12-05T02:46:54.451Z,36.00
2018-12-05T02:49:57.921Z,36.73
2018-12-05T02:53:01.659Z,33.10
2018-12-05T02:56:05.242Z,31.37
2018-12-05T02:59:08.725Z,29.00
2018-12-05T03:02:12.364Z,35.77
2018-12-05T03:05:16.127Z,29.20
2018-12-05T03:08:19.686Z,35.50
2018-12-05T03:11:23.137Z,32.20
2018-12-05T03:14:26.662Z,31.87
2018-12-05T03:17:30.229Z,38.47
2018-12-05T03:20:33.703Z,34.73
2018-12-05T03:23:37.189Z,32.43
2018-12-05T03:26:40.727Z,35.00
2018-12-05T03:29:44.224Z,45.87
2018-12-05T03:32:47.773Z,30.13
2018-12-05T03:40:51.544Z,55.00
2018-12-05T03:43:55.116Z,43.90
2018-12-05T03:46:58.588Z,42.03
2018-12-05T03:50:02.465Z,45.45
2018-12-05T03:53:06.058Z,45.67
2018-12-05T03:56:09.566Z,46.70
2018-12-05T03:59:13.163Z,48.73
2018-12-05T04:02:16.624Z,42.80
2018-12-05T04:05:20.188Z,43.57
2018-12-05T04:08:23.733Z,43.30
2018-12-05T04:11:27.344Z,44.05
2018-12-05T04:14:30.880Z,44.97
2018-12-05T04:17:34.534Z,34.63
2018-12-05T04:20:37.994Z,41.53
2018-12-05T04:23:41.640Z,45.83
2018-12-05T04:26:45.138Z,43.17
2018-12-05T04:29:48.674Z,47.10
2018-12-05T04:32:53.184Z,38.78
2018-12-05T04:35:56.709Z,59.13
2018-12-05T04:39:00.290Z,38.02
2018-12-05T04:42:03.804Z,42.45
2018-12-05T04:45:07.558Z,37.93
2018-12-05T04:48:10.998Z,48.27
2018-12-05T04:51:14.535Z,47.53
2018-12-05T04:54:18.001Z,44.17
2018-12-05T04:57:22.318Z,45.20
2018-12-05T05:00:25.797Z,46.33
2018-12-05T05:03:29.284Z,36.98
2018-12-05T05:06:32.773Z,41.73
2018-12-05T05:09:36.274Z,36.40
2018-12-05T05:12:39.779Z,53.20
2018-12-05T05:15:43.312Z,35.43
2018-12-05T05:18:46.849Z,35.20
2018-12-05T05:21:50.524Z,42.93
2018-12-05T05:24:54.043Z,37.73
2018-12-05T05:27:57.558Z,39.70
2018-12-05T05:31:01.046Z,40.60
2018-12-05T05:34:04.605Z,33.80
2018-12-05T05:37:08.082Z,35.30
2018-12-05T05:40:11.845Z,40.73
2018-12-05T05:43:15.399Z,48.45
2018-12-05T05:46:18.988Z,40.83
2018-12-05T05:49:22.535Z,26.70
2018-12-05T05:52:26.310Z,29.17
2018-12-05T05:55:29.843Z,30.67
2018-12-05T05:58:33.394Z,30.93
2018-12-05T06:01:36.923Z,40.80
2018-12-05T06:04:40.445Z,32.80
2018-12-05T06:07:44.145Z,30.07
2018-12-05T06:10:47.645Z,35.05
2018-12-05T06:13:51.184Z,33.17
2018-12-05T06:16:54.643Z,31.60
2018-12-05T06:19:58.223Z,29.30
2018-12-05T06:23:01.793Z,35.52
2018-12-05T06:26:05.324Z,37.63
2018-12-05T06:29:08.839Z,30.07
2018-12-05T06:32:12.350Z,26.40
2018-12-05T06:35:15.845Z,31.23
2018-12-05T06:38:19.308Z,42.83
2018-12-05T06:41:22.913Z,37.87
2018-12-05T06:44:26.560Z,27.20
2018-12-05T06:47:30.058Z,30.10
2018-12-05T06:50:33.585Z,31.80
2018-12-05T06:53:37.258Z,33.07
2018-12-05T06:56:40.904Z,31.45
2018-12-05T06:59:44.464Z,24.10
2018-12-05T07:02:48.179Z,36.50
2018-12-05T07:05:51.713Z,24.87
2018-12-05T07:08:55.284Z,27.77
2018-12-05T07:11:58.780Z,28.30
2018-12-05T07:15:02.329Z,23.95
2018-12-05T07:18:12.258Z,22.10
2018-12-05T07:21:15.837Z,30.08
2018-12-05T07:24:19.395Z,20.50
2018-12-05T07:27:23.332Z,25.55
2018-12-05T07:30:29.619Z,26.43
2018-12-05T07:33:32.404Z,28.97
2018-12-05T07:36:35.929Z,28.27
2018-12-05T07:39:39.393Z,24.40
2018-12-05T07:42:43.554Z,21.63
2018-12-05T07:45:47.170Z,28.47
2018-12-05T07:48:50.684Z,31.53
2018-12-05T07:51:54.258Z,21.40
2018-12-05T07:54:57.751Z,23.17
2018-12-05T07:58:01.268Z,23.00
2018-12-05T08:01:04.775Z,23.07
2018-12-05T08:04:08.311Z,27.10
2018-12-05T08:07:11.807Z,25.63
2018-12-05T08:10:15.399Z,24.50
2018-12-05T08:13:18.901Z,31.17
2018-12-05T08:16:23.087Z,23.42
2018-12-05T08:19:26.763Z,23.83
2018-12-05T08:22:30.224Z,38.03
2018-12-05T08:25:33.722Z,26.83
2018-12-05T08:28:37.177Z,24.63
2018-12-05T08:31:40.984Z,26.60
2018-12-05T08:34:44.464Z,22.53
2018-12-05T08:37:48.014Z,29.27
2018-12-05T08:40:51.497Z,22.90
2018-12-05T08:43:55.001Z,23.53
2018-12-05T08:46:58.626Z,25.08
2018-12-05T08:50:02.327Z,21.80
2018-12-05T08:53:05.993Z,26.95
2018-12-05T08:56:09.817Z,21.57
2018-12-05T08:59:13.392Z,29.20
2018-12-05T09:02:16.924Z,30.87
2018-12-05T09:05:20.682Z,21.10
2018-12-05T09:08:24.217Z,22.17
2018-12-05T09:11:27.723Z,16.63
2018-12-05T09:14:31.324Z,18.05
2018-12-05T09:17:34.819Z,29.37
2018-12-05T09:20:38.271Z,24.03
2018-12-05T09:23:41.825Z,29.40
2018-12-05T09:26:45.393Z,26.80
2018-12-05T09:29:48.938Z,22.67
2018-12-05T09:38:26.351Z,30.60
2018-12-05T09:41:29.824Z,27.73
2018-12-05T09:44:33.379Z,20.53
2018-12-05T09:47:36.913Z,25.67
2018-12-05T09:50:40.403Z,20.20
2018-12-05T09:53:43.933Z,17.63
2018-12-05T09:56:47.454Z,19.10
2018-12-05T09:59:52.084Z,21.50
2018-12-05T10:02:55.739Z,20.40
2018-12-05T10:05:59.387Z,16.57
2018-12-05T10:09:04.067Z,21.67
2018-12-05T10:12:07.583Z,25.90
2018-12-05T10:15:11.332Z,26.13
2018-12-05T10:18:14.978Z,25.50
2018-12-05T10:21:18.533Z,15.50
2018-12-05T10:24:21.989Z,21.83
2018-12-05T10:27:25.568Z,16.47
2018-12-05T10:30:29.082Z,19.37
2018-12-05T10:33:32.793Z,19.40
2018-12-05T10:36:36.551Z,18.30
2018-12-05T10:39:40.038Z,19.70
2018-12-05T10:42:43.464Z,15.03
2018-12-05T10:45:47.127Z,21.37
2018-12-05T10:48:50.653Z,17.95
2018-12-05T10:51:54.791Z,17.90
2018-12-05T10:54:58.341Z,15.30
2018-12-05T10:58:02.153Z,25.48
2018-12-05T11:01:10.988Z,13.25
2018-12-05T11:04:20.971Z,17.40
2018-12-05T11:07:29.877Z,19.30
2018-12-05T11:10:38.721Z,14.83
2018-12-05T11:13:47.482Z,20.53
2018-12-05T11:16:57.276Z,20.33
2018-12-05T11:20:06.098Z,16.12
2018-12-05T11:23:14.616Z,12.60
2018-12-05T11:26:21.781Z,14.53
2018-12-05T11:29:25.456Z,15.53
2018-12-05T11:32:28.930Z,14.10
2018-12-05T11:35:32.525Z,17.53
2018-12-05T11:38:36.187Z,10.53
2018-12-05T11:41:39.707Z,20.72
2018-12-05T11:44:43.390Z,19.07
2018-12-05T11:47:47.115Z,14.90
2018-12-05T11:50:50.697Z,18.80
2018-12-05T11:53:55.137Z,18.70
2018-12-05T11:56:58.738Z,16.30
2018-12-05T12:00:02.245Z,18.20
2018-12-05T12:03:06.142Z,15.27
2018-12-05T12:06:09.632Z,17.10
2018-12-05T12:09:13.398Z,16.03
2018-12-05T12:12:22.272Z,14.23
2018-12-05T12:15:25.832Z,17.87
2018-12-05T12:18:29.346Z,14.23
2018-12-05T12:21:32.834Z,18.40
2018-12-05T12:24:36.488Z,11.83
2018-12-05T12:27:39.930Z,13.30
2018-12-05T12:30:43.352Z,13.50
2018-12-05T12:33:46.924Z,15.53
2018-12-05T12:36:50.426Z,18.63
2018-12-05T12:39:55.360Z,11.15
2018-12-05T12:42:58.907Z,13.50
2018-12-05T12:46:02.447Z,14.35
2018-12-05T12:49:06.020Z,11.93
2018-12-05T12:52:09.582Z,13.58
2018-12-05T12:55:13.135Z,10.37
2018-12-05T12:58:16.619Z,14.13
2018-12-05T13:01:20.160Z,12.37
2018-12-05T13:04:24.428Z,16.75
2018-12-05T13:07:27.906Z,16.67
2018-12-05T13:10:31.466Z,8.77
2018-12-05T13:13:34.943Z,8.87
2018-12-05T13:16:38.719Z,10.20
2018-12-05T13:19:42.193Z,8.28
2018-12-05T13:22:45.786Z,10.40
2018-12-05T13:25:49.281Z,10.83
2018-12-05T13:28:52.751Z,15.10
2018-12-05T13:31:56.221Z,11.83
2018-12-05T13:34:59.736Z,12.30
2018-12-05T13:38:03.385Z,14.80
2018-12-05T13:41:21.477Z,8.58
2018-12-05T13:44:25.305Z,9.23
2018-12-05T13:47:28.807Z,8.83
2018-12-05T13:50:32.323Z,10.20
2018-12-05T13:53:35.838Z,11.87
2018-12-05T13:56:40.103Z,14.55
2018-12-05T13:59:43.683Z,8.73
2018-12-05T14:02:47.308Z,8.70
2018-12-05T14:05:50.868Z,9.57
2018-12-05T14:08:55.330Z,14.23
2018-12-05T14:11:58.843Z,7.87
2018-12-05T14:15:02.336Z,5.97
2018-12-05T14:18:05.783Z,12.30
2018-12-05T14:21:09.272Z,11.90
2018-12-05T14:24:12.937Z,7.10
2018-12-05T14:27:16.603Z,12.03
2018-12-05T14:30:20.179Z,10.27
2018-12-05T14:33:24.662Z,12.30
2018-12-05T14:36:28.257Z,10.90
2018-12-05T14:39:31.954Z,7.10
2018-12-05T14:42:35.484Z,12.57
2018-12-05T14:45:39.129Z,5.07
2018-12-05T14:48:42.647Z,7.17
2018-12-05T14:51:46.220Z,11.17
2018-12-05T14:54:49.729Z,11.50
2018-12-05T14:57:53.372Z,14.70
2018-12-05T15:00:56.842Z,10.67
2018-12-05T15:04:00.554Z,15.30
2018-12-05T15:07:04.125Z,9.98
2018-12-05T15:10:08.042Z,13.23
2018-12-05T15:13:11.597Z,7.47
2018-12-05T15:16:15.157Z,11.30
2018-12-05T15:19:18.735Z,9.60
2018-12-05T15:22:23.203Z,8.73
2018-12-05T15:25:26.926Z,12.53
2018-12-05T15:28:30.582Z,13.30
2018-12-05T15:31:34.099Z,8.50
2018-12-05T15:34:37.603Z,10.18
2018-12-05T15:37:41.179Z,10.33
2018-12-05T15:40:44.660Z,11.75
2018-12-05T15:43:48.172Z,10.80
2018-12-05T15:46:51.673Z,7.30
2018-12-05T15:49:56.847Z,5.60
2018-12-05T15:53:00.442Z,12.73
2018-12-05T15:56:03.959Z,10.03
2018-12-05T15:59:07.509Z,9.03
2018-12-05T16:02:11.168Z,7.25
2018-12-05T16:05:14.975Z,8.95
2018-12-05T16:08:18.428Z,13.70
2018-12-05T16:11:22.004Z,12.23
2018-12-05T16:14:25.504Z,11.43
2018-12-05T16:17:29.190Z,14.97
2018-12-05T16:20:32.755Z,15.53
2018-12-05T16:23:36.294Z,8.33
2018-12-05T16:26:40.027Z,12.20
2018-12-05T16:29:43.453Z,5.80
2018-12-05T16:32:47.018Z,8.00
2018-12-05T16:35:50.582Z,9.60
2018-12-05T16:44:46.128Z,9.10
2018-12-05T16:47:49.709Z,7.83
2018-12-05T16:50:53.213Z,12.47
2018-12-05T16:53:56.764Z,6.10
2018-12-05T16:57:00.270Z,9.75
2018-12-05T17:00:04.180Z,10.67
2018-12-05T17:03:07.855Z,11.07
2018-12-05T17:06:11.398Z,12.23
2018-12-05T17:09:14.874Z,11.20
2018-12-05T17:12:18.456Z,16.53
2018-12-05T17:15:21.934Z,15.87
2018-12-05T17:18:25.893Z,13.58
2018-12-05T17:21:29.537Z,10.50
2018-12-05T17:24:33.051Z,12.78
2018-12-05T17:27:36.583Z,12.70
2018-12-05T17:30:40.064Z,10.88
2018-12-05T17:33:43.551Z,10.83
2018-12-05T17:36:47.060Z,9.35
2018-12-05T17:39:50.567Z,10.47
2018-12-05T17:42:54.142Z,7.15
2018-12-05T17:45:57.764Z,11.93
2018-12-05T17:49:01.281Z,16.55
2018-12-05T17:52:04.978Z,10.72
2018-12-05T17:55:08.493Z,12.98
2018-12-05T17:58:20.000Z,13.17
2018-12-05T18:01:23.446Z,11.00
2018-12-05T18:04:27.024Z,10.27
2018-12-05T18:07:30.601Z,11.40
2018-12-05T18:10:34.109Z,10.73
2018-12-05T18:13:37.645Z,13.47
2018-12-05T18:16:41.166Z,9.10
2018-12-05T18:19:44.916Z,12.73
2018-12-05T18:22:48.410Z,10.10
2018-12-05T18:25:51.939Z,11.07
2018-12-05T18:34:28.710Z,10.73
2018-12-05T18:37:32.260Z,12.93
2018-12-05T18:40:35.790Z,11.60
2018-12-05T18:43:39.465Z,14.47
2018-12-05T18:46:43.015Z,12.00
2018-12-05T18:49:46.489Z,10.17
2018-12-05T18:52:50.200Z,9.67
2018-12-05T18:55:53.735Z,10.77
2018-12-05T18:58:57.284Z,12.45
2018-12-05T19:02:00.854Z,19.17
2018-12-05T19:05:04.919Z,11.53
2018-12-05T19:08:09.050Z,13.43
2018-12-05T19:11:12.774Z,14.47
2018-12-05T19:14:21.554Z,14.87
2018-12-05T19:17:25.109Z,15.90
2018-12-05T19:20:28.813Z,12.83
2018-12-05T19:23:32.323Z,14.68
2018-12-05T19:26:35.760Z,11.30
2018-12-05T19:29:39.267Z,17.05
2018-12-05T19:32:42.736Z,18.40
2018-12-05T19:35:46.258Z,19.07
2018-12-05T19:38:49.962Z,14.30
2018-12-05T19:41:54.078Z,13.20
2018-12-05T19:44:57.587Z,15.53
2018-12-05T19:48:01.138Z,13.80
2018-12-05T19:51:04.817Z,15.07
2018-12-05T19:54:08.514Z,12.30
2018-12-05T19:57:12.054Z,16.42
2018-12-05T20:00:15.552Z,16.80
2018-12-05T20:03:19.089Z,15.80
2018-12-05T20:06:25.634Z,14.77
2018-12-05T20:09:29.179Z,15.20
2018-12-05T20:12:32.747Z,15.90
2018-12-05T20:15:36.253Z,20.60
2018-12-05T20:18:39.798Z,16.57
2018-12-05T20:21:43.343Z,13.68
2018-12-05T20:24:46.833Z,13.40
2018-12-05T20:27:50.388Z,15.37
2018-12-05T20:30:53.887Z,13.93
2018-12-05T20:33:57.500Z,13.20
2018-12-05T20:37:00.956Z,18.33
2018-12-05T20:40:05.453Z,19.80
2018-12-05T20:43:09.089Z,17.52
2018-12-05T20:46:12.629Z,18.73
2018-12-05T20:49:16.088Z,15.10
2018-12-05T20:52:19.628Z,19.47
2018-12-05T20:55:23.078Z,19.00
2018-12-05T20:58:26.595Z,16.25
2018-12-05T21:01:30.350Z,17.37
2018-12-05T21:04:33.921Z,16.07
2018-12-05T21:07:37.453Z,17.20
2018-12-05T21:10:41.020Z,17.63
2018-12-05T21:13:44.720Z,19.37
2018-12-05T21:16:48.221Z,18.53
2018-12-05T21:19:51.808Z,16.30
2018-12-05T21:22:55.350Z,18.33
2018-12-05T21:25:59.023Z,16.60
2018-12-05T21:29:02.505Z,17.02
2018-12-05T21:32:06.205Z,18.53
2018-12-05T21:35:09.740Z,15.30
2018-12-05T21:38:13.234Z,19.17
2018-12-05T21:41:16.736Z,21.07
2018-12-05T21:44:20.314Z,16.60
2018-12-05T21:47:23.760Z,16.90
2018-12-05T21:50:27.290Z,17.83
2018-12-05T21:53:31.020Z,18.67
2018-12-05T21:56:34.500Z,17.27
2018-12-05T21:59:38.010Z,15.50
2018-12-05T22:02:41.428Z,20.37
2018-12-05T22:05:44.969Z,18.07
2018-12-05T22:08:48.474Z,17.13
2018-12-05T22:11:52.078Z,18.97
2018-12-05T22:14:55.780Z,21.90
2018-12-05T22:17:59.243Z,27.13
2018-12-05T22:21:09.420Z,20.50
2018-12-05T22:24:13.035Z,20.15
2018-12-05T22:27:16.597Z,17.70
2018-12-05T22:30:20.140Z,20.43
2018-12-05T22:33:23.670Z,21.55
2018-12-05T22:36:27.302Z,18.00
2018-12-05T22:39:30.779Z,18.00
2018-12-05T22:42:34.223Z,19.90
2018-12-05T22:45:37.794Z,21.82
2018-12-05T22:48:41.279Z,23.27
2018-12-05T22:51:44.763Z,19.85
2018-12-05T22:54:48.288Z,20.40
2018-12-05T22:57:51.804Z,23.52
2018-12-05T23:00:58.295Z,21.50
2018-12-05T23:04:01.822Z,19.12
2018-12-05T23:07:05.530Z,16.65
2018-12-05T23:10:09.167Z,23.57
2018-12-05T23:13:12.689Z,21.80
2018-12-05T23:16:16.164Z,22.63
2018-12-05T23:19:19.922Z,24.15
2018-12-05T23:22:23.646Z,21.43
2018-12-05T23:25:27.147Z,21.60
2018-12-05T23:28:30.680Z,25.23
2018-12-05T23:31:34.184Z,21.50
2018-12-05T23:34:37.745Z,20.17
2018-12-05T23:37:41.240Z,22.77
2018-12-05T23:40:44.858Z,21.87
2018-12-05T23:43:48.408Z,21.53
2018-12-05T23:46:52.030Z,22.53
2018-12-05T23:49:55.540Z,21.93
2018-12-05T23:52:59.120Z,23.73
2018-12-05T23:56:02.583Z,27.05
2018-12-05T23:59:06.063Z,26.25
